Time;durP1;ratioP1;P1;durP2;ratioP2;P2;SDS_P1;SDS_P2;PMS_P1;PMS_P2;Temp;Humidity;BMP_temperature;BMP_pressure;BME280_temperature;BME280_humidity;BME280_pressure;Samples;Min_cycle;Max_cycle;Signal;HPM_P1;HPM_P2
2022/12/23 00:00:43;;;;;;;86.93;77.70;;;;;;;2.19;71.49;94786.69;5098117;28;20208;-71
2022/12/23 00:03:10;;;;;;;94.40;84.38;;;;;;;2.19;71.80;94775.81;5098756;28;20204;-71
2022/12/23 00:05:38;;;;;;;100.70;89.70;;;;;;;2.25;71.13;94787.38;5098901;28;20185;-71
2022/12/23 00:08:05;;;;;;;83.40;74.47;;;;;;;2.29;71.36;94785.66;5097576;28;20228;-71
2022/12/23 00:10:32;;;;;;;79.45;71.05;;;;;;;2.29;71.59;94781.03;5098487;28;20207;-71
2022/12/23 00:15:44;;;;;;;87.50;78.20;;;;;;;2.33;71.58;94790.19;5098295;28;20263;-70
2022/12/23 00:18:11;;;;;;;82.20;73.68;;;;;;;2.31;71.42;94795.13;5131759;27;20188;-71
2022/12/23 00:20:38;;;;;;;81.20;72.38;;;;;;;2.30;70.95;94798.16;5097506;28;20199;-71
2022/12/23 00:23:06;;;;;;;79.25;70.95;;;;;;;2.36;71.36;94789.56;5097125;28;20208;-70
2022/12/23 00:25:43;;;;;;;80.00;71.82;;;;;;;2.42;71.08;94803.84;5097546;28;20231;-71
2022/12/23 00:28:12;;;;;;;82.75;74.10;;;;;;;2.44;71.42;94796.19;5096893;28;20245;-71
2022/12/23 00:30:46;;;;;;;96.50;85.97;;;;;;;2.38;71.29;94792.78;5097331;28;20210;-70
2022/12/23 00:33:13;;;;;;;96.32;86.25;;;;;;;2.34;71.12;94802.66;5097611;28;20239;-70
2022/12/23 00:35:42;;;;;;;97.75;87.45;;;;;;;2.29;71.13;94804.72;5097834;28;20555;-70
2022/12/23 00:38:08;;;;;;;97.82;87.35;;;;;;;2.25;71.11;94807.25;5098389;28;20180;-71
2022/12/23 00:43:20;;;;;;;98.97;88.97;;;;;;;2.29;71.63;94793.84;5096936;28;20286;-71
2022/12/23 00:45:48;;;;;;;94.68;84.82;;;;;;;2.26;71.63;94789.78;5097404;28;20192;-70
2022/12/23 00:50:59;;;;;;;83.53;74.88;;;;;;;2.19;71.31;94783.97;5096953;28;20204;-71
2022/12/23 00:53:26;;;;;;;81.40;72.70;;;;;;;2.16;71.34;94782.66;5097183;28;20216;-71
2022/12/23 00:55:54;;;;;;;85.65;77.05;;;;;;;2.16;71.96;94792.75;5097871;28;20180;-71
2022/12/23 00:58:22;;;;;;;85.43;76.50;;;;;;;2.20;72.15;94798.38;5097608;28;20242;-70
2022/12/23 01:06:18;;;;;;;69.07;62.03;;;;;;;2.32;71.41;94791.28;5097489;28;20181;-71
2022/12/23 01:08:45;;;;;;;66.70;59.60;;;;;;;2.35;71.28;94795.31;5097347;28;20200;-71
2022/12/23 01:11:12;;;;;;;65.55;58.53;;;;;;;2.32;71.43;94798.63;5096520;28;20196;-70
2022/12/23 01:13:39;;;;;;;64.43;57.33;;;;;;;2.34;71.80;94783.63;5096828;28;20249;-71
2022/12/23 01:16:10;;;;;;;63.22;56.72;;;;;;;2.34;71.63;94786.34;5097273;28;20502;-71
2022/12/23 01:18:37;;;;;;;59.95;53.85;;;;;;;2.42;71.63;94776.63;5096693;28;20215;-71
2022/12/23 01:21:05;;;;;;;56.75;50.80;;;;;;;2.46;71.65;94784.97;5096628;28;20245;-71
2022/12/23 01:23:32;;;;;;;51.88;46.58;;;;;;;2.55;71.21;94783.16;5096733;28;20193;-72
2022/12/23 01:26:01;;;;;;;52.33;47.03;;;;;;;2.60;71.28;94788.47;5097558;28;20189;-71
2022/12/23 01:28:28;;;;;;;50.33;44.95;;;;;;;2.63;71.51;94785.91;5096700;28;20196;-71
2022/12/23 01:30:55;;;;;;;71.90;64.53;;;;;;;2.62;70.81;94780.78;5097392;28;20193;-71
2022/12/23 01:33:26;;;;;;;72.18;64.82;;;;;;;2.58;71.54;94791.50;5097549;28;20211;-71
2022/12/23 01:35:59;;;;;;;63.05;56.65;;;;;;;2.56;71.72;94788.28;5097357;28;20211;-71
2022/12/23 01:38:26;;;;;;;54.13;48.42;;;;;;;2.63;71.72;94775.03;5096330;28;20246;-71
2022/12/23 01:40:53;;;;;;;53.55;48.05;;;;;;;2.67;71.56;94769.75;5096469;28;20511;-71
2022/12/23 01:43:19;;;;;;;53.10;47.78;;;;;;;2.67;71.14;94768.97;5097439;28;20185;-72
2022/12/23 01:45:46;;;;;;;63.38;56.75;;;;;;;2.71;71.59;94759.84;5096786;28;20304;-71
2022/12/23 01:48:15;;;;;;;60.13;53.80;;;;;;;2.73;71.67;94763.09;5097033;28;20191;-71
2022/12/23 01:50:47;;;;;;;58.22;52.05;;;;;;;2.67;71.73;94753.44;5096164;28;20200;-72
2022/12/23 01:53:17;;;;;;;58.10;51.70;;;;;;;2.62;71.56;94750.84;5095850;28;20212;-71
2022/12/23 01:55:46;;;;;;;61.30;53.42;;;;;;;2.61;71.72;94743.78;5096575;28;20199;-71
2022/12/23 01:58:15;;;;;;;64.93;56.50;;;;;;;2.55;71.62;94748.56;5095682;28;20203;-71
2022/12/23 02:03:42;;;;;;;67.30;59.58;;;;;;;2.63;71.97;94739.63;5095373;28;20193;-72
2022/12/23 02:11:55;;;;;;;77.50;69.50;;;;;;;2.66;71.65;94724.59;5095360;28;20349;-71
2022/12/23 02:17:21;;;;;;;83.63;75.10;;;;;;;2.69;71.60;94731.31;5084662;28;20208;-71
2022/12/23 02:20:13;;;;;;;86.70;77.90;;;;;;;2.70;71.91;94711.97;5095528;28;20204;-71
2022/12/23 02:22:58;;;;;;;84.70;76.20;;;;;;;2.74;71.56;94714.88;5094580;28;20215;-71
2022/12/23 02:25:53;;;;;;;78.57;70.60;;;;;;;2.75;71.70;94714.53;5096441;28;20203;-71
2022/12/23 02:28:40;;;;;;;78.72;70.63;;;;;;;2.80;71.76;94711.69;5090849;28;20219;-71
2022/12/23 02:31:13;;;;;;;84.90;76.32;;;;;;;2.85;71.52;94724.38;5095345;28;20320;-71
2022/12/23 02:33:47;;;;;;;132.52;120.25;;;;;;;2.85;71.24;94725.19;5095797;28;20204;-71
2022/12/23 02:36:25;;;;;;;140.35;127.65;;;;;;;2.89;71.76;94719.91;5095240;28;20206;-71
2022/12/23 02:38:59;;;;;;;145.18;132.27;;;;;;;2.94;71.28;94714.34;5096058;28;20177;-71
2022/12/23 02:41:30;;;;;;;135.20;122.65;;;;;;;2.98;71.15;94711.78;5095419;28;20192;-71
2022/12/23 02:44:00;;;;;;;138.40;125.68;;;;;;;3.00;71.08;94720.44;5095144;28;20196;-71
2022/12/23 02:46:33;;;;;;;145.95;132.82;;;;;;;2.99;71.51;94730.53;5095042;28;20201;-71
2022/12/23 02:49:03;;;;;;;135.55;123.05;;;;;;;3.01;71.24;94733.75;5095523;28;20196;-71
2022/12/23 02:51:32;;;;;;;103.10;93.47;;;;;;;3.02;70.52;94718.22;5095820;28;20184;-71
2022/12/23 02:54:02;;;;;;;74.07;66.63;;;;;;;3.02;70.48;94721.75;5095696;28;20201;-71
2022/12/23 02:56:30;;;;;;;65.03;58.45;;;;;;;3.04;70.40;94718.69;5095724;28;20203;-70
2022/12/23 02:59:01;;;;;;;65.00;58.60;;;;;;;2.99;69.77;94724.28;5095899;28;20203;-70
2022/12/23 03:01:31;;;;;;;73.82;66.40;;;;;;;2.94;70.16;94721.69;5095571;28;20184;-71
2022/12/23 03:03:58;;;;;;;77.38;69.68;;;;;;;2.90;70.69;94737.84;5095681;28;20200;-71
2022/12/23 03:06:27;;;;;;;71.38;64.55;;;;;;;2.93;70.58;94725.53;5095181;28;20539;-71
2022/12/23 03:08:56;;;;;;;73.13;66.05;;;;;;;2.88;70.58;94727.28;5095876;28;20237;-71
2022/12/23 03:11:25;;;;;;;68.00;61.28;;;;;;;2.84;70.88;94718.13;5095695;28;20196;-71
2022/12/23 03:14:07;;;;;;;73.32;66.00;;;;;;;2.84;71.24;94714.59;5095542;28;20292;-71
2022/12/23 03:16:44;;;;;;;71.80;64.47;;;;;;;2.83;70.67;94721.16;5094580;28;20242;-71
2022/12/23 03:19:14;;;;;;;78.93;70.93;;;;;;;2.78;70.71;94722.09;5094307;28;20192;-71
2022/12/23 03:21:44;;;;;;;77.05;69.15;;;;;;;2.75;70.87;94711.03;5094553;28;20200;-71
2022/12/23 03:24:21;;;;;;;74.50;66.95;;;;;;;2.74;70.74;94723.03;5095219;28;20188;-71
2022/12/23 03:26:52;;;;;;;73.13;65.70;;;;;;;2.73;70.96;94724.16;5095379;28;20181;-71
2022/12/23 03:29:22;;;;;;;71.50;64.43;;;;;;;2.71;71.33;94719.00;5095041;28;20244;-70
2022/12/23 03:31:51;;;;;;;71.78;64.45;;;;;;;2.74;70.99;94729.28;5094959;28;20220;-70
2022/12/23 03:34:21;;;;;;;67.22;60.28;;;;;;;2.75;70.83;94714.53;5094277;28;20220;-70
2022/12/23 03:36:51;;;;;;;67.32;60.20;;;;;;;2.74;70.96;94723.03;5095467;28;20189;-71
2022/12/23 03:39:21;;;;;;;59.40;53.42;;;;;;;2.76;70.48;94718.06;5095176;28;20207;-71
2022/12/23 03:41:50;;;;;;;56.88;51.13;;;;;;;2.75;70.55;94717.28;5095257;28;20192;-71
2022/12/23 03:44:21;;;;;;;54.10;48.67;;;;;;;2.76;70.81;94732.50;5095109;28;20188;-71
2022/12/23 03:46:53;;;;;;;53.05;47.72;;;;;;;2.76;70.58;94723.50;5094917;28;20533;-71
2022/12/23 03:49:23;;;;;;;50.88;45.88;;;;;;;2.74;70.52;94732.00;5095145;28;20260;-71
2022/12/23 03:51:52;;;;;;;49.70;44.55;;;;;;;2.73;70.44;94724.97;5095171;28;20188;-72
2022/12/23 03:54:24;;;;;;;47.20;42.72;;;;;;;2.72;70.41;94731.50;5095000;28;20205;-72
2022/12/23 03:56:54;;;;;;;46.67;42.20;;;;;;;2.75;70.50;94725.44;5094551;28;20199;-72
2022/12/23 03:59:23;;;;;;;46.53;42.03;;;;;;;2.80;70.44;94717.16;5095089;28;20181;-73
2022/12/23 04:02:00;;;;;;;46.55;41.70;;;;;;;2.87;69.93;94717.50;5094128;28;20200;-72
2022/12/23 04:04:30;;;;;;;46.63;42.13;;;;;;;2.94;69.89;94718.97;5093999;28;20207;-71
2022/12/23 04:07:01;;;;;;;44.70;40.45;;;;;;;2.95;70.11;94731.50;5094868;28;20184;-72
2022/12/23 04:09:29;;;;;;;44.22;39.92;;;;;;;2.93;69.86;94726.34;5094910;28;20203;-72
2022/12/23 04:11:57;;;;;;;42.40;38.20;;;;;;;2.93;69.31;94720.88;5093934;28;20208;-72
2022/12/23 04:14:25;;;;;;;43.78;39.30;;;;;;;2.95;69.56;94721.41;5094774;28;20204;-72
2022/12/23 04:16:57;;;;;;;42.20;38.00;;;;;;;2.96;69.77;94728.44;5094166;28;20237;-72
2022/12/23 04:19:23;;;;;;;40.70;36.85;;;;;;;2.98;70.02;94717.22;5094529;28;20208;-72
2022/12/23 04:21:50;;;;;;;40.97;36.83;;;;;;;3.01;70.37;94711.16;5093836;28;20229;-71
2022/12/23 04:24:17;;;;;;;43.15;38.75;;;;;;;3.02;70.10;94718.22;5094656;28;20607;-71
2022/12/23 04:26:45;;;;;;;42.38;38.10;;;;;;;2.99;70.02;94713.41;5094161;28;20203;-72
2022/12/23 04:29:11;;;;;;;42.22;38.17;;;;;;;2.99;71.18;94708.75;5093453;28;20238;-71
2022/12/23 04:31:38;;;;;;;43.28;38.97;;;;;;;2.94;71.23;94706.16;5094456;28;20593;-72
2022/12/23 04:34:06;;;;;;;44.55;40.25;;;;;;;2.93;71.01;94703.75;5093817;28;20209;-71
2022/12/23 04:36:33;;;;;;;44.63;40.25;;;;;;;2.90;71.42;94716.06;5094257;28;20208;-72
2022/12/23 04:39:00;;;;;;;45.97;41.50;;;;;;;2.94;71.23;94717.06;5097760;28;20242;-69
2022/12/23 04:41:26;;;;;;;44.42;39.97;;;;;;;2.96;71.65;94719.47;5098092;28;20249;-70
2022/12/23 04:43:53;;;;;;;43.95;39.72;;;;;;;2.95;71.60;94718.66;5098382;28;20246;-70
2022/12/23 04:46:20;;;;;;;45.58;41.08;;;;;;;2.95;71.06;94732.28;5098057;28;20176;-70
2022/12/23 04:48:47;;;;;;;47.17;42.47;;;;;;;2.97;71.47;94723.78;5097928;28;20638;-70
2022/12/23 04:51:15;;;;;;;47.10;42.53;;;;;;;3.00;72.27;94725.91;5097738;28;20193;-70
2022/12/23 04:53:42;;;;;;;46.92;42.47;;;;;;;3.02;72.64;94718.22;5097427;28;20223;-71
2022/12/23 04:56:09;;;;;;;48.17;43.38;;;;;;;3.04;72.48;94726.88;5096783;28;20240;-69
2022/12/23 04:58:35;;;;;;;47.80;43.35;;;;;;;3.07;72.54;94734.44;5096724;28;20196;-69
2022/12/23 05:01:03;;;;;;;51.17;46.28;;;;;;;3.06;72.24;94735.56;5096930;28;20979;-70
2022/12/23 05:03:30;;;;;;;49.78;44.92;;;;;;;3.08;72.12;94755.09;5097830;28;20176;-71
2022/12/23 05:05:56;;;;;;;47.45;42.95;;;;;;;3.08;72.43;94764.06;5097210;28;20661;-69
2022/12/23 05:08:24;;;;;;;50.75;45.80;;;;;;;3.12;72.38;94751.47;5096613;28;20199;-72
2022/12/23 05:10:51;;;;;;;50.30;45.45;;;;;;;3.11;72.22;94755.28;5097823;28;20195;-69
2022/12/23 05:13:18;;;;;;;52.75;47.67;;;;;;;3.14;72.05;94756.59;5097736;28;20211;-69
2022/12/23 05:15:45;;;;;;;50.38;45.47;;;;;;;3.13;72.31;94747.59;5097813;28;20184;-69
2022/12/23 05:18:12;;;;;;;52.17;47.25;;;;;;;3.23;71.82;94751.16;5097597;28;20199;-69
2022/12/23 05:20:38;;;;;;;58.08;52.40;;;;;;;3.28;71.67;94751.03;5096702;28;20192;-70
2022/12/23 05:23:05;;;;;;;62.80;56.55;;;;;;;3.29;71.37;94758.88;5097353;28;20246;-71
2022/12/23 05:25:36;;;;;;;66.22;59.65;;;;;;;3.30;71.16;94757.75;5097444;28;20196;-71
2022/12/23 05:28:02;;;;;;;66.82;60.47;;;;;;;3.34;71.23;94750.59;5096548;28;20188;-71
2022/12/23 05:30:29;;;;;;;64.65;58.08;;;;;;;3.38;71.09;94750.75;5095868;28;20224;-71
2022/12/23 05:32:57;;;;;;;57.20;51.63;;;;;;;3.41;71.56;94747.38;5096343;28;20212;-71
2022/12/23 05:35:25;;;;;;;53.53;48.22;;;;;;;3.46;70.92;94744.53;5096727;28;20200;-70
2022/12/23 05:37:53;;;;;;;49.80;44.97;;;;;;;3.51;71.39;94749.03;5097427;28;20184;-71
2022/12/23 05:40:20;;;;;;;59.95;53.85;;;;;;;3.47;71.15;94757.03;5096222;28;20196;-71
2022/12/23 05:42:48;;;;;;;59.75;54.00;;;;;;;3.43;72.13;94758.00;5096652;28;20212;-71
2022/12/23 05:45:15;;;;;;;59.15;53.25;;;;;;;3.41;72.01;94754.75;5096115;28;20208;-71
2022/12/23 05:47:42;;;;;;;59.70;53.97;;;;;;;3.41;72.11;94757.50;5096147;28;20617;-71
2022/12/23 05:50:09;;;;;;;63.72;57.03;;;;;;;3.40;72.59;94756.69;5096105;28;20200;-70
2022/12/23 05:52:36;;;;;;;69.40;62.15;;;;;;;3.36;72.37;94751.06;5096056;28;20192;-70
2022/12/23 05:55:03;;;;;;;63.22;56.58;;;;;;;3.41;72.17;94749.31;5096239;28;20212;-70
2022/12/23 05:57:31;;;;;;;60.72;54.22;;;;;;;3.43;71.72;94750.59;5096162;28;20200;-72
2022/12/23 06:00:00;;;;;;;68.55;61.25;;;;;;;3.44;72.25;94743.22;5096997;28;20208;-70
2022/12/23 06:02:26;;;;;;;66.35;59.50;;;;;;;3.45;71.85;94747.56;5096364;28;20199;-70
2022/12/23 06:04:53;;;;;;;67.00;60.28;;;;;;;3.45;72.04;94761.19;5095746;28;20203;-70
2022/12/23 06:07:20;;;;;;;74.50;67.00;;;;;;;3.45;72.49;94753.00;5096045;28;20211;-70
2022/12/23 06:09:47;;;;;;;85.68;77.22;;;;;;;3.39;72.74;94744.19;5096683;28;20219;-70
2022/12/23 06:12:14;;;;;;;87.85;78.97;;;;;;;3.37;72.72;94751.84;5096212;28;20191;-70
2022/12/23 06:14:40;;;;;;;88.53;79.60;;;;;;;3.39;72.75;94752.38;5095289;28;20212;-71
2022/12/23 06:17:09;;;;;;;86.88;78.38;;;;;;;3.41;72.79;94752.84;5095149;28;20204;-70
2022/12/23 06:19:36;;;;;;;91.10;82.22;;;;;;;3.43;72.67;94753.34;5095652;28;20636;-70
2022/12/23 06:22:03;;;;;;;96.47;87.03;;;;;;;3.46;72.52;94757.38;5095621;28;20192;-70
2022/12/23 06:24:30;;;;;;;96.70;87.43;;;;;;;3.47;73.00;94757.03;5095960;28;20193;-70
2022/12/23 06:26:57;;;;;;;96.78;87.35;;;;;;;3.47;73.23;94748.06;5095860;28;20200;-70
2022/12/23 06:29:24;;;;;;;99.18;90.03;;;;;;;3.49;72.75;94752.09;5095246;28;20238;-70
2022/12/23 06:31:52;;;;;;;103.70;93.90;;;;;;;3.49;73.06;94759.47;5096248;28;20187;-70
2022/12/23 06:34:20;;;;;;;107.90;97.47;;;;;;;3.46;73.04;94760.88;5095705;28;20658;-70
2022/12/23 06:36:47;;;;;;;109.88;99.57;;;;;;;3.45;72.88;94762.00;5095499;28;20278;-70
2022/12/23 06:39:14;;;;;;;112.53;101.78;;;;;;;3.43;73.25;94763.44;5096088;28;20185;-70
2022/12/23 06:41:41;;;;;;;114.95;104.00;;;;;;;3.46;73.19;94769.06;5096339;28;20180;-70
2022/12/23 06:44:08;;;;;;;175.70;158.55;;;;;;;3.52;72.99;94772.44;5096056;28;20192;-70
2022/12/23 06:46:35;;;;;;;174.35;157.10;;;;;;;3.51;72.44;94755.28;5095629;28;20246;-70
2022/12/23 06:49:02;;;;;;;166.32;150.10;;;;;;;3.54;72.76;94768.28;5095547;28;20207;-70
2022/12/23 06:51:31;;;;;;;166.95;150.30;;;;;;;3.58;72.58;94773.91;5095946;28;20192;-70
2022/12/23 06:53:59;;;;;;;127.95;115.95;;;;;;;3.61;72.28;94770.56;5095028;28;20231;-70
2022/12/23 06:56:26;;;;;;;89.28;80.40;;;;;;;3.54;71.98;94776.47;5095737;28;20200;-70
2022/12/23 06:58:53;;;;;;;82.38;74.15;;;;;;;3.47;71.68;94772.59;5095246;28;20203;-70
2022/12/23 07:01:20;;;;;;;79.32;71.63;;;;;;;3.39;71.65;94771.44;5094971;28;20196;-70
2022/12/23 07:03:46;;;;;;;79.25;71.28;;;;;;;3.40;71.95;94767.59;5094456;28;20200;-70
2022/12/23 07:06:13;;;;;;;77.30;69.63;;;;;;;3.40;72.49;94773.03;5094701;28;20185;-70
2022/12/23 07:08:42;;;;;;;78.18;70.03;;;;;;;3.44;72.03;94778.69;5094642;28;20196;-70
2022/12/23 07:11:08;;;;;;;82.32;74.07;;;;;;;3.50;71.79;94777.44;5094987;28;20212;-70
2022/12/23 07:13:35;;;;;;;92.47;83.28;;;;;;;3.45;71.34;94783.00;5094690;28;20212;-70
2022/12/23 07:16:05;;;;;;;103.68;93.47;;;;;;;3.37;71.14;94782.66;5094651;28;20200;-70
2022/12/23 07:18:32;;;;;;;104.75;94.15;;;;;;;3.38;71.53;94778.03;5093855;28;20204;-70
2022/12/23 07:21:00;;;;;;;103.95;93.85;;;;;;;3.41;71.88;94782.03;5094431;28;20188;-70
2022/12/23 07:23:27;;;;;;;99.03;89.10;;;;;;;3.41;71.74;94771.91;5095114;28;20280;-70
2022/12/23 07:25:55;;;;;;;103.22;92.90;;;;;;;3.48;71.97;94774.19;5095320;28;20199;-70
2022/12/23 07:28:22;;;;;;;106.10;95.47;;;;;;;3.54;72.15;94787.38;5094104;28;20196;-70
2022/12/23 07:30:49;;;;;;;113.95;102.78;;;;;;;3.62;72.16;94772.97;5094913;28;20193;-71
2022/12/23 07:33:16;;;;;;;111.38;100.28;;;;;;;3.67;72.17;94782.94;5095151;28;20195;-70
2022/12/23 07:35:43;;;;;;;110.30;99.47;;;;;;;3.69;71.59;94782.63;5095111;28;20203;-70
2022/12/23 07:38:11;;;;;;;109.57;99.00;;;;;;;3.64;71.64;94790.97;5093837;28;20196;-71
2022/12/23 07:40:37;;;;;;;113.18;101.82;;;;;;;3.62;71.48;94789.31;5094108;28;20199;-70
2022/12/23 07:43:06;;;;;;;109.18;98.45;;;;;;;3.66;71.79;94781.31;5094446;28;20196;-70
2022/12/23 07:45:33;;;;;;;109.93;99.15;;;;;;;3.79;71.42;94790.50;5095295;28;20188;-70
2022/12/23 07:48:02;;;;;;;107.00;96.60;;;;;;;3.92;71.67;94786.03;5095004;28;20188;-70
2022/12/23 07:50:29;;;;;;;119.38;107.53;;;;;;;3.97;71.34;94794.09;5094587;28;20577;-70
2022/12/23 07:52:56;;;;;;;135.25;122.25;;;;;;;4.06;71.04;94784.78;5094959;28;20196;-70
2022/12/23 07:55:23;;;;;;;168.57;152.27;;;;;;;4.15;70.75;94784.81;5095062;28;20281;-70
2022/12/23 07:57:50;;;;;;;171.07;155.05;;;;;;;4.24;70.91;94791.06;5093784;28;20620;-70
2022/12/23 08:00:19;;;;;;;162.27;147.15;;;;;;;4.40;70.53;94788.69;5094829;28;20211;-70
2022/12/23 08:02:48;;;;;;;136.20;123.10;;;;;;;4.55;70.25;94785.47;5094935;28;20189;-70
2022/12/23 08:05:15;;;;;;;131.27;118.38;;;;;;;4.70;69.83;94788.84;5093651;28;20199;-70
2022/12/23 08:07:43;;;;;;;128.80;116.72;;;;;;;4.80;69.39;94794.00;5094826;28;20207;-70
2022/12/23 08:10:11;;;;;;;120.57;108.97;;;;;;;4.91;69.39;94791.75;5094315;28;20189;-70
2022/12/23 08:12:38;;;;;;;115.32;103.85;;;;;;;4.92;68.63;94793.34;5097333;28;20192;-70
2022/12/23 08:15:06;;;;;;;113.47;102.60;;;;;;;4.86;68.27;94792.69;5098161;28;20648;-70
2022/12/23 08:17:35;;;;;;;106.18;96.05;;;;;;;4.87;68.11;94799.78;5097799;28;20209;-70
2022/12/23 08:20:02;;;;;;;101.50;91.72;;;;;;;4.89;67.96;94802.97;5097793;28;20192;-71
2022/12/23 08:22:31;;;;;;;104.03;93.90;;;;;;;4.89;67.34;94800.25;5097757;28;20204;-71
2022/12/23 08:24:58;;;;;;;101.63;91.82;;;;;;;4.86;67.64;94803.63;5098566;28;20173;-71
2022/12/23 08:27:25;;;;;;;99.65;89.65;;;;;;;4.87;67.77;94807.19;5098427;28;20199;-70
2022/12/23 08:29:52;;;;;;;100.88;91.22;;;;;;;4.93;67.60;94798.47;5098063;28;20240;-70
2022/12/23 08:32:19;;;;;;;99.70;90.40;;;;;;;5.01;67.87;94799.56;5097464;28;20569;-70
2022/12/23 08:34:47;;;;;;;96.78;87.47;;;;;;;5.19;67.44;94800.34;5097111;28;20220;-70
2022/12/23 08:37:16;;;;;;;96.05;86.53;;;;;;;5.36;66.86;94797.56;5097248;28;20212;-70
2022/12/23 08:39:43;;;;;;;86.68;78.32;;;;;;;5.45;65.98;94795.63;5097618;28;20265;-70
2022/12/23 08:42:10;;;;;;;83.90;75.70;;;;;;;5.62;66.09;94805.69;5097186;28;20197;-71
2022/12/23 08:44:37;;;;;;;82.78;75.05;;;;;;;5.73;65.96;94797.94;5097434;28;20196;-71
2022/12/23 08:47:04;;;;;;;86.40;78.22;;;;;;;5.75;65.44;94799.22;5097913;28;20184;-71
2022/12/23 08:49:31;;;;;;;87.68;79.45;;;;;;;5.71;65.14;94795.53;5097234;28;20189;-71
2022/12/23 08:51:59;;;;;;;89.00;80.60;;;;;;;5.70;65.05;94801.31;5097393;28;20195;-71
2022/12/23 08:54:28;;;;;;;90.45;81.90;;;;;;;5.73;64.80;94795.19;5096873;28;20598;-70
2022/12/23 08:56:55;;;;;;;90.88;82.35;;;;;;;5.77;64.98;94796.13;5097834;28;20266;-70
2022/12/23 08:59:21;;;;;;;90.75;82.15;;;;;;;5.81;64.99;94794.38;5097195;28;20565;-70
2022/12/23 09:01:48;;;;;;;86.03;78.18;;;;;;;5.84;64.99;94799.16;5097969;28;20176;-70
2022/12/23 09:04:15;;;;;;;88.72;80.43;;;;;;;5.86;65.06;94796.13;5097667;28;20255;-70
2022/12/23 09:06:44;;;;;;;86.25;77.90;;;;;;;5.87;65.01;94792.22;5096903;28;20188;-70
2022/12/23 09:09:13;;;;;;;92.88;83.97;;;;;;;5.87;64.62;94798.50;5097144;28;20196;-70
2022/12/23 09:11:40;;;;;;;92.80;84.30;;;;;;;5.82;64.40;94798.72;5097629;28;20191;-71
2022/12/23 09:14:08;;;;;;;93.35;84.35;;;;;;;5.80;64.37;94799.00;5096837;28;20255;-71
2022/12/23 09:16:36;;;;;;;93.72;84.57;;;;;;;5.82;64.66;94795.16;5096722;28;20196;-70
2022/12/23 09:19:06;;;;;;;94.72;85.68;;;;;;;5.87;64.61;94798.50;5097385;28;20605;-70
2022/12/23 09:21:33;;;;;;;98.13;88.43;;;;;;;5.93;64.44;94791.75;5097506;28;20196;-71
2022/12/23 09:24:00;;;;;;;102.22;92.43;;;;;;;5.97;64.54;94789.97;5097178;28;20181;-71
2022/12/23 09:26:30;;;;;;;105.57;95.45;;;;;;;5.98;64.10;94794.28;5097416;28;20192;-71
2022/12/23 09:28:57;;;;;;;111.07;100.47;;;;;;;6.02;64.38;94797.16;5096396;28;20243;-70
2022/12/23 09:31:24;;;;;;;113.72;102.65;;;;;;;6.06;64.41;94792.63;5096184;28;20208;-70
2022/12/23 09:33:53;;;;;;;115.82;104.82;;;;;;;6.07;64.18;94788.78;5097291;28;20183;-70
2022/12/23 09:36:21;;;;;;;113.40;102.50;;;;;;;6.13;64.59;94792.13;5096393;28;20211;-70
2022/12/23 09:38:48;;;;;;;115.63;104.63;;;;;;;6.17;64.29;94785.66;5097547;28;20196;-70
2022/12/23 09:41:30;;;;;;;110.25;99.60;;;;;;;6.20;64.69;94782.25;5097336;28;20266;-70
2022/12/23 09:44:11;;;;;;;113.13;102.30;;;;;;;6.24;64.39;94783.19;5096256;28;20192;-70
2022/12/23 09:46:44;;;;;;;101.82;91.93;;;;;;;6.27;64.50;94795.41;5095774;28;20204;-70
2022/12/23 09:49:12;;;;;;;83.70;75.63;;;;;;;6.29;64.41;94786.88;5097059;28;20245;-70
2022/12/23 09:51:39;;;;;;;75.38;68.15;;;;;;;6.27;64.38;94777.03;5096944;28;20181;-70
2022/12/23 09:54:11;;;;;;;73.05;65.80;;;;;;;6.30;64.30;94789.28;5096083;28;20197;-70
2022/12/23 09:56:44;;;;;;;77.68;70.03;;;;;;;6.32;64.48;94784.28;5096927;28;20172;-70
2022/12/23 09:59:19;;;;;;;82.88;75.03;;;;;;;6.35;64.45;94780.06;5095899;28;20196;-70
2022/12/23 10:01:49;;;;;;;84.43;76.13;;;;;;;6.35;64.37;94783.59;5096010;28;20192;-70
2022/12/23 10:04:32;;;;;;;81.43;73.32;;;;;;;6.39;64.47;94781.00;5095734;28;20200;-71
2022/12/23 10:07:12;;;;;;;79.95;72.03;;;;;;;6.46;64.47;94784.81;5096386;28;20192;-70
2022/12/23 10:09:41;;;;;;;82.80;74.47;;;;;;;6.57;64.62;94776.19;5096102;28;20196;-70
2022/12/23 10:12:16;;;;;;;80.90;73.03;;;;;;;6.66;64.58;94761.28;5096730;28;20196;-70
2022/12/23 10:14:43;;;;;;;81.85;73.55;;;;;;;6.82;64.97;94760.66;5095463;28;20223;-70
2022/12/23 10:17:15;;;;;;;83.93;75.72;;;;;;;6.94;64.39;94753.31;5095682;28;20211;-70
2022/12/23 10:19:44;;;;;;;84.13;75.15;;;;;;;7.04;64.04;94754.00;5095682;28;20204;-70
2022/12/23 10:22:15;;;;;;;85.03;76.50;;;;;;;7.09;63.54;94749.13;5095634;28;20220;-70
2022/12/23 10:24:44;;;;;;;85.68;77.22;;;;;;;7.12;63.34;94744.91;5096346;28;20207;-70
2022/12/23 10:27:22;;;;;;;84.57;76.07;;;;;;;7.19;63.78;94745.94;5096357;28;20180;-70
2022/12/23 10:29:49;;;;;;;82.47;74.15;;;;;;;7.32;63.76;94746.78;5095434;28;20224;-70
2022/12/23 10:32:21;;;;;;;80.20;72.07;;;;;;;7.48;63.89;94744.97;5095833;28;20192;-70
2022/12/23 10:34:52;;;;;;;76.00;68.40;;;;;;;7.59;63.74;94744.50;5093905;28;20228;-70
2022/12/23 10:37:24;;;;;;;77.20;69.38;;;;;;;7.67;63.82;94746.38;5095434;28;20207;-71
2022/12/23 10:40:01;;;;;;;80.07;72.18;;;;;;;7.76;63.83;94738.00;5095057;28;20192;-71
2022/12/23 10:42:34;;;;;;;94.28;84.78;;;;;;;7.83;63.51;94730.00;5095026;28;20215;-71
2022/12/23 10:45:10;;;;;;;121.68;109.22;;;;;;;7.89;62.47;94723.94;5094705;28;20211;-71
2022/12/23 10:47:47;;;;;;;119.60;107.38;;;;;;;7.92;62.40;94719.72;5095078;28;20200;-71
2022/12/23 10:50:45;;;;;;;121.60;108.53;;;;;;;8.01;62.14;94717.63;5095680;28;20177;-71
2022/12/23 10:53:15;;;;;;;114.50;102.90;;;;;;;8.13;61.93;94714.06;5094468;28;20540;-71
2022/12/23 10:55:42;;;;;;;111.03;99.35;;;;;;;8.29;61.63;94717.72;5095899;28;20207;-70
2022/12/23 10:58:16;;;;;;;104.70;94.07;;;;;;;8.42;61.91;94704.75;5094912;28;20536;-70
2022/12/23 11:00:45;;;;;;;110.82;99.47;;;;;;;8.49;61.59;94715.97;5094677;28;20303;-71
2022/12/23 11:03:17;;;;;;;112.47;100.63;;;;;;;8.52;60.98;94715.28;5095627;28;20184;-71
2022/12/23 11:05:45;;;;;;;110.03;98.15;;;;;;;8.50;60.18;94717.59;5095354;28;20237;-70
2022/12/23 11:08:12;;;;;;;105.88;94.78;;;;;;;8.42;59.75;94718.50;5094461;28;20192;-70
2022/12/23 11:10:39;;;;;;;104.40;93.55;;;;;;;8.39;59.71;94714.53;5094663;28;20215;-70
2022/12/23 11:13:06;;;;;;;99.88;89.28;;;;;;;8.39;59.89;94719.22;5095460;28;20189;-70
2022/12/23 11:15:36;;;;;;;96.63;86.35;;;;;;;8.38;60.00;94710.16;5095898;28;20224;-70
2022/12/23 11:18:11;;;;;;;90.60;80.88;;;;;;;8.38;60.44;94712.09;5096130;28;20196;-70
2022/12/23 11:20:40;;;;;;;106.80;96.15;;;;;;;8.36;60.45;94706.13;5095336;28;20204;-70
2022/12/23 11:23:24;;;;;;;92.93;83.22;;;;;;;8.34;60.62;94717.47;5095328;28;20199;-70
2022/12/23 11:26:00;;;;;;;92.78;83.22;;;;;;;8.32;60.57;94718.97;5095225;28;20196;-70
2022/12/23 11:28:27;;;;;;;59.17;53.08;;;;;;;8.31;61.05;94723.66;5096335;28;20219;-70
2022/12/23 11:30:57;;;;;;;65.18;58.15;;;;;;;8.25;60.73;94721.50;5056329;28;20182;-70
2022/12/23 11:33:25;;;;;;;67.32;60.38;;;;;;;8.22;60.60;94716.69;5055207;28;20201;-70
2022/12/23 11:36:01;;;;;;;66.50;59.40;;;;;;;8.19;60.87;94712.69;5055630;28;20216;-71
2022/12/23 11:38:28;;;;;;;65.57;58.67;;;;;;;8.17;60.73;94721.28;5055089;28;20197;-70
2022/12/23 11:40:55;;;;;;;65.03;58.17;;;;;;;8.14;60.91;94719.22;5056307;28;20250;-70
2022/12/23 11:43:23;;;;;;;62.50;55.83;;;;;;;8.10;61.01;94726.56;5055194;28;20293;-71
2022/12/23 11:46:15;;;;;;;55.33;49.65;;;;;;;8.05;61.30;94726.78;5057079;28;20498;-71
2022/12/23 11:48:43;;;;;;;55.78;49.97;;;;;;;8.03;61.54;94728.28;5059212;28;20209;-71
2022/12/23 11:51:10;;;;;;;55.35;49.55;;;;;;;8.01;61.91;94720.38;5059017;28;20178;-71
2022/12/23 11:53:38;;;;;;;56.58;50.80;;;;;;;8.00;61.90;94726.22;5057702;28;20212;-71
2022/12/23 11:56:08;;;;;;;56.92;50.88;;;;;;;7.98;62.17;94715.56;5057411;28;20279;-71